MyVirtualAirline - vaBase.com - Virtual Airline Management Software
Search flights

Traian Vuia Airport, Timisoara (LRTR)

Airport Weather & NOTAM's

No METAR information available.

Live Departures & Arrivals

There are currently no arrivals or departures for this airport.

Departures History (last 12 months)

Flight No. Dest. Aircraft Date
KLM07RD LFKJ 737-800 PA... 2026-05-10 11:37:14
V3107 LFKJ FenixA320... 2026-04-28 05:49:13
V3104 LIRQ FenixA319... 2026-04-22 11:10:39
RYR96F LIRQ 737-700 PA... 2026-04-21 16:13:56
ICE473 LIRQ Cessna Lon... 2026-04-21 14:16:31
HYS256 LROP FenixA320... 2026-04-20 21:13:42
ROT96F LFKJ iFly 737-M... 2026-04-19 17:29:55
KLM43A LROP 737-900 PA... 2026-04-18 17:22:36
RO374 LFKJ PMDG 737-8... 2026-04-07 10:00:58
WZZ473 LFKJ A320neo Wi... 2026-04-05 06:14:00
ROT210 LFKJ FSLabs A32... 2026-04-05 20:08:45
KLM43A LROP 737-900 PA... 2026-04-04 09:06:02
AWG473 LROP A320neo V2 2026-03-25 12:58:17
WMT611 LIRN Airbus A32... 2026-03-14 18:38:33
KLM07RI LEBB 777-200ER... 2026-03-01 09:31:52
AWG121Q LROP FenixA320... 2026-02-22 00:49:30
KLM43A LROP iFly 737-M... 2026-02-20 18:21:31
WMT9170 EDDN FenixA320... 2026-02-17 14:39:31
ROT96F LIRF 737-600 PA... 2026-02-14 17:12:46
HYS473 LIRF Airbus A32... 2026-02-14 17:17:20
HYS473 LROP Airbus A32... 2026-02-12 14:35:49
KLM090 LROP FenixA320... 2026-02-06 19:23:53
KLM43A LYTV 737-800 PA... 2026-02-04 15:12:39

Arrivals History (last 12 months)

Flight No. Origin Aircraft Date
V3106 LGSM FenixA320... 2026-04-23 15:34:05
V3111 LROP FenixA319... 2026-04-22 10:53:25
KLM06DR LGSM 737-800 PA... 2026-04-22 16:32:58
{}YR-JRC LRBC DA42-VI Dr... 2026-04-21 13:54:23
YR96F LRBC Black Squa... 2026-04-21 13:02:12
WZZ473 LRBC TBM 930 01... 2026-04-21 13:27:56
WZZ473 LRBC A320neo Wi... 2026-04-20 19:21:34
ROT9957 LDPL Black Squa... 2026-04-20 09:57:55
RYR96F LGSM 737-700 PA... 2026-04-14 16:21:38
KLM090 LRBC FenixA320... 2026-04-08 20:03:17
RO374 LGSM PMDG 737-8... 2026-04-06 15:11:06
WZZ473 LGSM A320neo Wi... 2026-04-04 19:32:16
{}WMT5KN LIME FenixA320... 2026-04-03 23:23:41
KLM43A LROP 737-900 PA... 2026-04-03 18:32:51
KLM43A LROP 737-900 PA... 2026-03-27 20:34:33
TBY9957 LRAR JMB Aviati... 2026-03-23 09:27:25
WZZ9957 LROP FenixA320... 2026-03-13 19:41:55
ROT090 LROP FenixA320... 2026-03-13 19:11:15
KLM43A LROP 737-900 PA... 2026-03-13 21:06:28
HYS7616 HEGN Fenix A320... 2026-03-07 20:11:44
AWG126 LROP FenixA320... 2026-03-06 18:37:11
KLM43A LROP 737-900 PA... 2026-02-27 19:12:10
WMT3UW LIRF FenixA320... 2026-02-22 00:32:15
KLM06RI EPGD 737-900 PA... 2026-02-22 18:25:22
HYS473 LROP a320-liver... 2026-02-09 19:57:44
KLM43A LROP 737-800 PA... 2026-01-29 11:51:16
KLM43A LROP 737-800 PA... 2026-01-22 17:16:08

Runway Information (Airport elevation: 348ft)

Runway 11 Length 11,488ft Width 146ft Elevation 343ft Surface Asphalt Heading 110
Runway 29 Length 11,488ft Width 146ft Elevation 343ft Surface Asphalt Heading 290

Airport Frequencies

Type APP/DEP Frequency 123.530 Mhz
Type APP/DEP Frequency 126.350 Mhz
Type APP/DEP Frequency 127.250 Mhz
Type ATIS Frequency 123.125 Mhz
Type Ground Frequency 121.600 Mhz
Type Tower Frequency 120.105 Mhz
Type Tower Frequency 129.450 Mhz

Airport Navaids

Type NDB Ident TSR Frequency 408 Khz